sensor_id;sensor_type;location;lat;lon;timestamp;pressure;altitude;pressure_sealevel;temperature;humidity
8160;BME280;27404;52.398;9.646;2023-02-10T00:01:34;102624.38;;;0.77;100.00
8160;BME280;27404;52.398;9.646;2023-02-10T00:04:00;102627.97;;;0.77;100.00
8160;BME280;27404;52.398;9.646;2023-02-10T00:06:26;102633.09;;;0.69;100.00
8160;BME280;27404;52.398;9.646;2023-02-10T00:08:58;102635.78;;;0.69;100.00
8160;BME280;27404;52.398;9.646;2023-02-10T00:11:25;102640.41;;;0.67;100.00
8160;BME280;27404;52.398;9.646;2023-02-10T00:14:09;102629.91;;;0.75;100.00
8160;BME280;27404;52.398;9.646;2023-02-10T00:16:35;102643.00;;;0.80;100.00
8160;BME280;27404;52.398;9.646;2023-02-10T00:19:00;102636.53;;;0.94;100.00
8160;BME280;27404;52.398;9.646;2023-02-10T00:21:25;102636.41;;;0.95;100.00
8160;BME280;27404;52.398;9.646;2023-02-10T00:23:51;102645.09;;;0.99;100.00
8160;BME280;27404;52.398;9.646;2023-02-10T00:26:16;102638.59;;;1.01;100.00
8160;BME280;27404;52.398;9.646;2023-02-10T00:28:42;102648.16;;;1.06;100.00
8160;BME280;27404;52.398;9.646;2023-02-10T00:31:11;102643.84;;;1.03;100.00
8160;BME280;27404;52.398;9.646;2023-02-10T00:33:37;102646.06;;;1.09;100.00
8160;BME280;27404;52.398;9.646;2023-02-10T00:36:10;102649.38;;;1.13;100.00
8160;BME280;27404;52.398;9.646;2023-02-10T00:38:37;102643.38;;;1.09;100.00
8160;BME280;27404;52.398;9.646;2023-02-10T00:41:11;102654.13;;;1.09;100.00
8160;BME280;27404;52.398;9.646;2023-02-10T00:43:37;102653.28;;;1.09;100.00
8160;BME280;27404;52.398;9.646;2023-02-10T00:46:05;102647.03;;;1.08;100.00
8160;BME280;27404;52.398;9.646;2023-02-10T00:48:31;102651.44;;;1.09;100.00
8160;BME280;27404;52.398;9.646;2023-02-10T00:50:56;102652.66;;;1.05;100.00
8160;BME280;27404;52.398;9.646;2023-02-10T00:53:22;102652.31;;;0.98;100.00
8160;BME280;27404;52.398;9.646;2023-02-10T00:55:47;102661.28;;;0.99;100.00
8160;BME280;27404;52.398;9.646;2023-02-10T00:58:13;102656.47;;;1.02;100.00
8160;BME280;27404;52.398;9.646;2023-02-10T01:00:38;102660.50;;;1.08;100.00
8160;BME280;27404;52.398;9.646;2023-02-10T01:03:04;102666.63;;;1.10;100.00
8160;BME280;27404;52.398;9.646;2023-02-10T01:05:29;102666.28;;;1.15;100.00
8160;BME280;27404;52.398;9.646;2023-02-10T01:07:55;102672.25;;;1.18;100.00
8160;BME280;27404;52.398;9.646;2023-02-10T01:10:21;102660.41;;;1.21;100.00
8160;BME280;27404;52.398;9.646;2023-02-10T01:12:46;102662.84;;;1.24;100.00
8160;BME280;27404;52.398;9.646;2023-02-10T01:15:12;102663.44;;;1.16;100.00
8160;BME280;27404;52.398;9.646;2023-02-10T01:17:38;102660.75;;;1.16;100.00
8160;BME280;27404;52.398;9.646;2023-02-10T01:20:05;102657.22;;;1.16;100.00
8160;BME280;27404;52.398;9.646;2023-02-10T01:22:34;102664.81;;;1.11;100.00
8160;BME280;27404;52.398;9.646;2023-02-10T01:24:59;102657.06;;;1.17;100.00
8160;BME280;27404;52.398;9.646;2023-02-10T01:27:25;102663.94;;;1.10;100.00
8160;BME280;27404;52.398;9.646;2023-02-10T01:29:50;102659.66;;;1.19;100.00
8160;BME280;27404;52.398;9.646;2023-02-10T01:32:16;102664.06;;;1.20;100.00
8160;BME280;27404;52.398;9.646;2023-02-10T01:34:42;102665.31;;;1.16;100.00
8160;BME280;27404;52.398;9.646;2023-02-10T01:37:07;102670.44;;;1.08;100.00
8160;BME280;27404;52.398;9.646;2023-02-10T01:39:32;102663.22;;;0.97;100.00
8160;BME280;27404;52.398;9.646;2023-02-10T01:41:58;102661.25;;;0.87;100.00
8160;BME280;27404;52.398;9.646;2023-02-10T01:46:53;102654.00;;;0.77;100.00
8160;BME280;27404;52.398;9.646;2023-02-10T01:49:22;102651.44;;;0.64;100.00
8160;BME280;27404;52.398;9.646;2023-02-10T01:51:58;102653.25;;;0.52;100.00
8160;BME280;27404;52.398;9.646;2023-02-10T01:54:29;102648.47;;;0.55;100.00
8160;BME280;27404;52.398;9.646;2023-02-10T01:56:55;102650.78;;;0.49;100.00
8160;BME280;27404;52.398;9.646;2023-02-10T01:59:22;102654.22;;;0.51;100.00
8160;BME280;27404;52.398;9.646;2023-02-10T02:01:50;102652.13;;;0.54;100.00
8160;BME280;27404;52.398;9.646;2023-02-10T02:04:16;102647.16;;;0.61;100.00
8160;BME280;27404;52.398;9.646;2023-02-10T02:06:41;102654.63;;;0.69;100.00
8160;BME280;27404;52.398;9.646;2023-02-10T02:09:08;102645.94;;;0.77;100.00
8160;BME280;27404;52.398;9.646;2023-02-10T02:11:39;102648.63;;;0.77;100.00
8160;BME280;27404;52.398;9.646;2023-02-10T02:17:15;102650.25;;;0.91;100.00
8160;BME280;27404;52.398;9.646;2023-02-10T02:33:24;102657.09;;;0.95;100.00
8160;BME280;27404;52.398;9.646;2023-02-10T02:36:21;102659.56;;;0.98;100.00
8160;BME280;27404;52.398;9.646;2023-02-10T02:38:44;102661.97;;;1.01;100.00
8160;BME280;27404;52.398;9.646;2023-02-10T02:41:10;102648.88;;;1.08;100.00
8160;BME280;27404;52.398;9.646;2023-02-10T02:43:37;102656.34;;;1.15;100.00
8160;BME280;27404;52.398;9.646;2023-02-10T02:46:14;102653.78;;;1.14;100.00
8160;BME280;27404;52.398;9.646;2023-02-10T02:48:56;102650.97;;;1.15;100.00
8160;BME280;27404;52.398;9.646;2023-02-10T02:54:34;102651.09;;;1.14;100.00
8160;BME280;27404;52.398;9.646;2023-02-10T02:57:19;102648.75;;;1.21;100.00
8160;BME280;27404;52.398;9.646;2023-02-10T02:59:51;102647.19;;;1.18;100.00
8160;BME280;27404;52.398;9.646;2023-02-10T03:02:20;102659.41;;;1.22;100.00
8160;BME280;27404;52.398;9.646;2023-02-10T03:04:46;102653.28;;;1.31;100.00
8160;BME280;27404;52.398;9.646;2023-02-10T03:07:13;102654.63;;;1.37;100.00
8160;BME280;27404;52.398;9.646;2023-02-10T03:09:39;102657.94;;;1.29;100.00
8160;BME280;27404;52.398;9.646;2023-02-10T03:12:05;102649.72;;;1.31;100.00
8160;BME280;27404;52.398;9.646;2023-02-10T03:14:31;102654.53;;;1.27;100.00
8160;BME280;27404;52.398;9.646;2023-02-10T03:16:56;102649.00;;;1.29;100.00
8160;BME280;27404;52.398;9.646;2023-02-10T03:19:21;102658.78;;;1.30;100.00
8160;BME280;27404;52.398;9.646;2023-02-10T03:21:47;102662.44;;;1.40;100.00
8160;BME280;27404;52.398;9.646;2023-02-10T03:24:13;102657.41;;;1.36;100.00
8160;BME280;27404;52.398;9.646;2023-02-10T03:26:38;102645.16;;;1.43;100.00
8160;BME280;27404;52.398;9.646;2023-02-10T03:29:05;102650.94;;;1.38;100.00
8160;BME280;27404;52.398;9.646;2023-02-10T03:31:31;102655.84;;;1.44;100.00
8160;BME280;27404;52.398;9.646;2023-02-10T03:33:56;102663.19;;;1.42;100.00
8160;BME280;27404;52.398;9.646;2023-02-10T03:36:22;102666.25;;;1.38;100.00
8160;BME280;27404;52.398;9.646;2023-02-10T03:38:47;102668.09;;;1.37;100.00
8160;BME280;27404;52.398;9.646;2023-02-10T03:41:14;102663.69;;;1.36;100.00
8160;BME280;27404;52.398;9.646;2023-02-10T03:43:39;102655.59;;;1.36;100.00
8160;BME280;27404;52.398;9.646;2023-02-10T03:46:07;102672.25;;;1.41;100.00
8160;BME280;27404;52.398;9.646;2023-02-10T03:48:33;102664.50;;;1.48;100.00
8160;BME280;27404;52.398;9.646;2023-02-10T03:51:00;102661.81;;;1.48;100.00
8160;BME280;27404;52.398;9.646;2023-02-10T03:53:28;102662.22;;;1.43;100.00
8160;BME280;27404;52.398;9.646;2023-02-10T03:55:54;102664.25;;;1.51;100.00
8160;BME280;27404;52.398;9.646;2023-02-10T03:58:20;102660.09;;;1.58;100.00
8160;BME280;27404;52.398;9.646;2023-02-10T04:00:45;102667.09;;;1.50;100.00
8160;BME280;27404;52.398;9.646;2023-02-10T04:03:11;102666.38;;;1.47;100.00
8160;BME280;27404;52.398;9.646;2023-02-10T04:05:36;102668.34;;;1.45;100.00
8160;BME280;27404;52.398;9.646;2023-02-10T04:08:02;102679.94;;;1.46;100.00
8160;BME280;27404;52.398;9.646;2023-02-10T04:10:28;102679.22;;;1.44;100.00
8160;BME280;27404;52.398;9.646;2023-02-10T04:12:53;102662.22;;;1.43;100.00
8160;BME280;27404;52.398;9.646;2023-02-10T04:15:19;102667.22;;;1.37;100.00
8160;BME280;27404;52.398;9.646;2023-02-10T04:17:44;102654.84;;;1.45;100.00
8160;BME280;27404;52.398;9.646;2023-02-10T04:20:10;102660.25;;;1.45;100.00
8160;BME280;27404;52.398;9.646;2023-02-10T04:22:35;102662.94;;;1.45;100.00
8160;BME280;27404;52.398;9.646;2023-02-10T04:25:01;102663.03;;;1.44;100.00
8160;BME280;27404;52.398;9.646;2023-02-10T04:27:26;102662.81;;;1.47;100.00
8160;BME280;27404;52.398;9.646;2023-02-10T04:29:52;102653.50;;;1.40;100.00
8160;BME280;27404;52.398;9.646;2023-02-10T04:32:17;102651.56;;;1.30;100.00
8160;BME280;27404;52.398;9.646;2023-02-10T04:34:42;102657.22;;;1.27;100.00
8160;BME280;27404;52.398;9.646;2023-02-10T04:37:08;102666.13;;;1.28;100.00
8160;BME280;27404;52.398;9.646;2023-02-10T04:39:34;102667.47;;;1.33;100.00
8160;BME280;27404;52.398;9.646;2023-02-10T04:41:59;102667.34;;;1.35;100.00
8160;BME280;27404;52.398;9.646;2023-02-10T04:44:25;102665.78;;;1.32;100.00
8160;BME280;27404;52.398;9.646;2023-02-10T04:46:50;102665.50;;;1.36;100.00
8160;BME280;27404;52.398;9.646;2023-02-10T04:49:16;102666.38;;;1.36;100.00
8160;BME280;27404;52.398;9.646;2023-02-10T04:51:42;102660.41;;;1.32;100.00
8160;BME280;27404;52.398;9.646;2023-02-10T04:54:07;102664.78;;;1.33;100.00
8160;BME280;27404;52.398;9.646;2023-02-10T04:56:33;102656.00;;;1.31;100.00
8160;BME280;27404;52.398;9.646;2023-02-10T04:58:59;102662.72;;;1.26;100.00
8160;BME280;27404;52.398;9.646;2023-02-10T05:01:24;102664.06;;;1.31;100.00
8160;BME280;27404;52.398;9.646;2023-02-10T05:03:50;102665.66;;;1.23;100.00
8160;BME280;27404;52.398;9.646;2023-02-10T05:06:15;102667.59;;;1.21;100.00
8160;BME280;27404;52.398;9.646;2023-02-10T05:08:41;102666.28;;;1.26;100.00
8160;BME280;27404;52.398;9.646;2023-02-10T05:11:08;102673.88;;;1.21;100.00
8160;BME280;27404;52.398;9.646;2023-02-10T05:13:34;102676.56;;;1.10;100.00
8160;BME280;27404;52.398;9.646;2023-02-10T05:16:00;102672.25;;;1.07;100.00
8160;BME280;27404;52.398;9.646;2023-02-10T05:18:31;102674.22;;;1.05;100.00
8160;BME280;27404;52.398;9.646;2023-02-10T05:20:57;102681.69;;;0.90;100.00
8160;BME280;27404;52.398;9.646;2023-02-10T05:23:24;102686.94;;;0.80;100.00
8160;BME280;27404;52.398;9.646;2023-02-10T05:25:50;102692.31;;;0.69;100.00
8160;BME280;27404;52.398;9.646;2023-02-10T05:28:15;102682.47;;;0.56;100.00
8160;BME280;27404;52.398;9.646;2023-02-10T05:30:41;102681.53;;;0.69;100.00
8160;BME280;27404;52.398;9.646;2023-02-10T05:33:06;102685.81;;;0.60;100.00
8160;BME280;27404;52.398;9.646;2023-02-10T05:35:32;102688.50;;;0.60;100.00
8160;BME280;27404;52.398;9.646;2023-02-10T05:37:57;102688.22;;;0.52;100.00
8160;BME280;27404;52.398;9.646;2023-02-10T05:40:22;102692.25;;;0.46;100.00
8160;BME280;27404;52.398;9.646;2023-02-10T05:42:49;102682.91;;;0.39;100.00
8160;BME280;27404;52.398;9.646;2023-02-10T05:45:14;102693.75;;;0.26;100.00
8160;BME280;27404;52.398;9.646;2023-02-10T05:47:40;102686.22;;;0.31;100.00
8160;BME280;27404;52.398;9.646;2023-02-10T05:50:06;102684.94;;;0.24;100.00
8160;BME280;27404;52.398;9.646;2023-02-10T05:52:32;102686.16;;;0.20;100.00
8160;BME280;27404;52.398;9.646;2023-02-10T05:54:57;102691.59;;;0.31;100.00
8160;BME280;27404;52.398;9.646;2023-02-10T05:57:22;102687.88;;;0.21;100.00
8160;BME280;27404;52.398;9.646;2023-02-10T05:59:48;102697.28;;;0.15;100.00
8160;BME280;27404;52.398;9.646;2023-02-10T06:02:13;102695.59;;;0.01;100.00
8160;BME280;27404;52.398;9.646;2023-02-10T06:04:39;102710.59;;;-0.08;100.00
8160;BME280;27404;52.398;9.646;2023-02-10T06:07:04;102710.31;;;-0.16;100.00
8160;BME280;27404;52.398;9.646;2023-02-10T06:09:30;102713.22;;;-0.19;100.00
8160;BME280;27404;52.398;9.646;2023-02-10T06:11:55;102710.97;;;-0.25;100.00
8160;BME280;27404;52.398;9.646;2023-02-10T06:14:21;102718.78;;;-0.34;100.00
8160;BME280;27404;52.398;9.646;2023-02-10T06:16:46;102722.44;;;-0.48;100.00
8160;BME280;27404;52.398;9.646;2023-02-10T06:19:12;102715.69;;;-0.53;100.00
8160;BME280;27404;52.398;9.646;2023-02-10T06:21:37;102714.50;;;-0.62;100.00
8160;BME280;27404;52.398;9.646;2023-02-10T06:24:03;102720.56;;;-0.71;100.00
8160;BME280;27404;52.398;9.646;2023-02-10T06:26:28;102723.69;;;-0.78;100.00
8160;BME280;27404;52.398;9.646;2023-02-10T06:28:54;102731.31;;;-0.84;100.00
8160;BME280;27404;52.398;9.646;2023-02-10T06:31:21;102734.13;;;-0.86;100.00
8160;BME280;27404;52.398;9.646;2023-02-10T06:33:46;102735.28;;;-0.90;100.00
8160;BME280;27404;52.398;9.646;2023-02-10T06:36:12;102746.34;;;-0.95;100.00
8160;BME280;27404;52.398;9.646;2023-02-10T06:38:38;102754.09;;;-0.90;100.00
8160;BME280;27404;52.398;9.646;2023-02-10T06:41:04;102750.44;;;-0.89;100.00
8160;BME280;27404;52.398;9.646;2023-02-10T06:43:30;102756.22;;;-0.95;100.00
8160;BME280;27404;52.398;9.646;2023-02-10T06:45:55;102756.66;;;-1.01;100.00
8160;BME280;27404;52.398;9.646;2023-02-10T06:48:21;102764.50;;;-0.98;100.00
8160;BME280;27404;52.398;9.646;2023-02-10T06:50:46;102766.44;;;-1.00;100.00
8160;BME280;27404;52.398;9.646;2023-02-10T06:53:12;102770.00;;;-1.00;100.00
8160;BME280;27404;52.398;9.646;2023-02-10T06:55:37;102764.91;;;-0.92;100.00
8160;BME280;27404;52.398;9.646;2023-02-10T06:58:03;102775.22;;;-0.85;100.00
8160;BME280;27404;52.398;9.646;2023-02-10T07:00:29;102769.66;;;-0.69;100.00
8160;BME280;27404;52.398;9.646;2023-02-10T07:02:57;102774.38;;;-0.60;100.00
8160;BME280;27404;52.398;9.646;2023-02-10T07:05:23;102772.53;;;-0.47;100.00
8160;BME280;27404;52.398;9.646;2023-02-10T07:07:49;102765.53;;;-0.36;100.00
8160;BME280;27404;52.398;9.646;2023-02-10T07:10:17;102769.38;;;-0.27;100.00
8160;BME280;27404;52.398;9.646;2023-02-10T07:12:43;102766.16;;;-0.20;100.00
8160;BME280;27404;52.398;9.646;2023-02-10T07:15:09;102765.69;;;-0.13;100.00
8160;BME280;27404;52.398;9.646;2023-02-10T07:17:34;102768.91;;;-0.08;100.00
8160;BME280;27404;52.398;9.646;2023-02-10T07:20:02;102760.41;;;-0.15;100.00
8160;BME280;27404;52.398;9.646;2023-02-10T07:22:28;102767.94;;;-0.20;100.00
8160;BME280;27404;52.398;9.646;2023-02-10T07:24:53;102763.44;;;-0.20;100.00
8160;BME280;27404;52.398;9.646;2023-02-10T07:27:19;102761.16;;;-0.13;100.00
8160;BME280;27404;52.398;9.646;2023-02-10T07:29:44;102766.09;;;-0.07;100.00
8160;BME280;27404;52.398;9.646;2023-02-10T07:32:10;102769.94;;;0.02;100.00
8160;BME280;27404;52.398;9.646;2023-02-10T07:34:35;102769.47;;;0.08;100.00
8160;BME280;27404;52.398;9.646;2023-02-10T07:37:01;102773.34;;;0.04;100.00
8160;BME280;27404;52.398;9.646;2023-02-10T07:39:27;102770.22;;;0.10;100.00
8160;BME280;27404;52.398;9.646;2023-02-10T07:41:53;102772.88;;;0.23;100.00
8160;BME280;27404;52.398;9.646;2023-02-10T07:44:18;102772.66;;;0.26;100.00
8160;BME280;27404;52.398;9.646;2023-02-10T07:46:47;102775.66;;;0.46;100.00
8160;BME280;27404;52.398;9.646;2023-02-10T07:49:13;102773.25;;;0.54;100.00
8160;BME280;27404;52.398;9.646;2023-02-10T07:51:38;102774.41;;;0.63;100.00
8160;BME280;27404;52.398;9.646;2023-02-10T07:54:04;102776.53;;;0.82;100.00
8160;BME280;27404;52.398;9.646;2023-02-10T07:56:31;102774.97;;;0.91;100.00
8160;BME280;27404;52.398;9.646;2023-02-10T07:58:57;102778.28;;;1.06;100.00
8160;BME280;27404;52.398;9.646;2023-02-10T08:01:22;102781.59;;;0.98;100.00
8160;BME280;27404;52.398;9.646;2023-02-10T08:03:47;102789.44;;;1.01;100.00
8160;BME280;27404;52.398;9.646;2023-02-10T08:06:19;102787.09;;;1.08;100.00
8160;BME280;27404;52.398;9.646;2023-02-10T08:08:46;102795.66;;;1.02;100.00
8160;BME280;27404;52.398;9.646;2023-02-10T08:11:11;102785.03;;;1.00;100.00
8160;BME280;27404;52.398;9.646;2023-02-10T08:13:36;102791.00;;;1.04;100.00
8160;BME280;27404;52.398;9.646;2023-02-10T08:16:06;102783.56;;;1.08;100.00
8160;BME280;27404;52.398;9.646;2023-02-10T08:18:42;102787.97;;;1.09;100.00
8160;BME280;27404;52.398;9.646;2023-02-10T08:21:08;102796.69;;;1.24;100.00
8160;BME280;27404;52.398;9.646;2023-02-10T08:23:34;102779.53;;;1.25;100.00
8160;BME280;27404;52.398;9.646;2023-02-10T08:26:08;102791.69;;;1.30;100.00
8160;BME280;27404;52.398;9.646;2023-02-10T08:28:35;102784.94;;;1.36;100.00
8160;BME280;27404;52.398;9.646;2023-02-10T08:31:01;102790.22;;;1.49;100.00
8160;BME280;27404;52.398;9.646;2023-02-10T08:33:27;102791.44;;;1.56;100.00
8160;BME280;27404;52.398;9.646;2023-02-10T08:35:53;102791.56;;;1.66;100.00
8160;BME280;27404;52.398;9.646;2023-02-10T08:38:18;102795.72;;;1.70;100.00
8160;BME280;27404;52.398;9.646;2023-02-10T08:40:44;102799.28;;;1.82;100.00
8160;BME280;27404;52.398;9.646;2023-02-10T08:43:09;102793.88;;;1.94;100.00
8160;BME280;27404;52.398;9.646;2023-02-10T08:45:37;102798.97;;;2.08;100.00
8160;BME280;27404;52.398;9.646;2023-02-10T08:48:03;102805.59;;;2.15;100.00
8160;BME280;27404;52.398;9.646;2023-02-10T08:50:28;102806.81;;;2.11;100.00
8160;BME280;27404;52.398;9.646;2023-02-10T08:52:54;102816.03;;;2.20;100.00
8160;BME280;27404;52.398;9.646;2023-02-10T08:55:19;102816.81;;;2.43;100.00
8160;BME280;27404;52.398;9.646;2023-02-10T08:57:45;102818.09;;;2.60;100.00
8160;BME280;27404;52.398;9.646;2023-02-10T09:00:11;102817.66;;;2.76;100.00
8160;BME280;27404;52.398;9.646;2023-02-10T09:02:36;102819.72;;;2.84;100.00
8160;BME280;27404;52.398;9.646;2023-02-10T09:05:03;102814.91;;;2.88;100.00
8160;BME280;27404;52.398;9.646;2023-02-10T09:07:28;102823.53;;;2.81;100.00
8160;BME280;27404;52.398;9.646;2023-02-10T09:09:54;102815.84;;;2.77;100.00
8160;BME280;27404;52.398;9.646;2023-02-10T09:12:19;102809.66;;;2.86;100.00
8160;BME280;27404;52.398;9.646;2023-02-10T09:14:45;102814.38;;;2.94;100.00
8160;BME280;27404;52.398;9.646;2023-02-10T09:17:10;102818.81;;;2.95;100.00
8160;BME280;27404;52.398;9.646;2023-02-10T09:19:37;102821.00;;;3.01;100.00
8160;BME280;27404;52.398;9.646;2023-02-10T09:22:06;102823.81;;;3.00;100.00
8160;BME280;27404;52.398;9.646;2023-02-10T09:24:32;102824.34;;;2.93;100.00
8160;BME280;27404;52.398;9.646;2023-02-10T09:26:58;102823.38;;;2.94;100.00
8160;BME280;27404;52.398;9.646;2023-02-10T09:29:24;102824.47;;;2.92;100.00
8160;BME280;27404;52.398;9.646;2023-02-10T09:31:49;102825.66;;;2.99;100.00
8160;BME280;27404;52.398;9.646;2023-02-10T09:34:15;102827.38;;;3.00;100.00
8160;BME280;27404;52.398;9.646;2023-02-10T09:36:41;102813.72;;;3.02;100.00
8160;BME280;27404;52.398;9.646;2023-02-10T09:39:07;102820.56;;;3.06;100.00
8160;BME280;27404;52.398;9.646;2023-02-10T09:41:38;102819.88;;;3.25;100.00
8160;BME280;27404;52.398;9.646;2023-02-10T09:44:19;102821.03;;;3.53;100.00
8160;BME280;27404;52.398;9.646;2023-02-10T09:52:40;102848.25;;;3.62;100.00
8160;BME280;27404;52.398;9.646;2023-02-10T09:55:15;102841.66;;;3.54;100.00
8160;BME280;27404;52.398;9.646;2023-02-10T09:57:44;102847.59;;;3.48;100.00
8160;BME280;27404;52.398;9.646;2023-02-10T10:00:23;102838.63;;;3.48;100.00
8160;BME280;27404;52.398;9.646;2023-02-10T10:02:53;102843.44;;;3.44;100.00
8160;BME280;27404;52.398;9.646;2023-02-10T10:08:29;102837.91;;;3.24;100.00
8160;BME280;27404;52.398;9.646;2023-02-10T10:11:19;102841.00;;;3.41;100.00
8160;BME280;27404;52.398;9.646;2023-02-10T10:13:47;102845.75;;;3.49;100.00
8160;BME280;27404;52.398;9.646;2023-02-10T10:16:24;102841.41;;;3.58;100.00
8160;BME280;27404;52.398;9.646;2023-02-10T10:25:27;102847.22;;;3.84;100.00
8160;BME280;27404;52.398;9.646;2023-02-10T10:30:54;102839.81;;;3.86;100.00
8160;BME280;27404;52.398;9.646;2023-02-10T10:33:26;102838.38;;;3.82;100.00
8160;BME280;27404;52.398;9.646;2023-02-10T10:35:54;102837.94;;;3.87;100.00
8160;BME280;27404;52.398;9.646;2023-02-10T10:38:26;102838.94;;;3.85;100.00
8160;BME280;27404;52.398;9.646;2023-02-10T10:41:02;102840.47;;;3.78;100.00
8160;BME280;27404;52.398;9.646;2023-02-10T10:46:35;102840.19;;;3.81;100.00
8160;BME280;27404;52.398;9.646;2023-02-10T10:49:03;102834.53;;;3.84;100.00
8160;BME280;27404;52.398;9.646;2023-02-10T10:51:30;102834.41;;;3.86;100.00
8160;BME280;27404;52.398;9.646;2023-02-10T10:53:57;102828.16;;;3.95;100.00
8160;BME280;27404;52.398;9.646;2023-02-10T10:56:44;102828.44;;;3.92;100.00
8160;BME280;27404;52.398;9.646;2023-02-10T11:01:46;102822.59;;;3.97;100.00
8160;BME280;27404;52.398;9.646;2023-02-10T11:04:19;102822.44;;;3.98;100.00
8160;BME280;27404;52.398;9.646;2023-02-10T11:06:46;102818.34;;;4.04;100.00
8160;BME280;27404;52.398;9.646;2023-02-10T11:11:53;102816.50;;;4.05;100.00
8160;BME280;27404;52.398;9.646;2023-02-10T11:14:24;102804.56;;;4.07;100.00
8160;BME280;27404;52.398;9.646;2023-02-10T11:16:53;102814.78;;;4.04;100.00
8160;BME280;27404;52.398;9.646;2023-02-10T11:19:29;102805.66;;;4.05;100.00
8160;BME280;27404;52.398;9.646;2023-02-10T11:21:55;102811.69;;;4.08;100.00
8160;BME280;27404;52.398;9.646;2023-02-10T11:26:58;102812.50;;;3.99;100.00
8160;BME280;27404;52.398;9.646;2023-02-10T11:29:25;102801.84;;;4.07;100.00
8160;BME280;27404;52.398;9.646;2023-02-10T11:31:53;102799.97;;;3.98;100.00
8160;BME280;27404;52.398;9.646;2023-02-10T11:36:53;102788.00;;;4.00;100.00
8160;BME280;27404;52.398;9.646;2023-02-10T11:41:51;102793.00;;;4.15;100.00
8160;BME280;27404;52.398;9.646;2023-02-10T11:44:26;102793.16;;;4.23;100.00
8160;BME280;27404;52.398;9.646;2023-02-10T11:47:01;102790.75;;;4.20;100.00
8160;BME280;27404;52.398;9.646;2023-02-10T11:49:28;102797.75;;;4.23;100.00
8160;BME280;27404;52.398;9.646;2023-02-10T11:51:58;102790.34;;;4.25;100.00
8160;BME280;27404;52.398;9.646;2023-02-10T11:54:26;102781.06;;;4.27;100.00
8160;BME280;27404;52.398;9.646;2023-02-10T11:57:30;102789.06;;;4.29;100.00
8160;BME280;27404;52.398;9.646;2023-02-10T12:00:24;102787.03;;;4.31;100.00
8160;BME280;27404;52.398;9.646;2023-02-10T12:03:23;102779.78;;;4.41;100.00
8160;BME280;27404;52.398;9.646;2023-02-10T12:06:06;102784.09;;;4.44;100.00
8160;BME280;27404;52.398;9.646;2023-02-10T12:11:46;102780.53;;;4.53;100.00
8160;BME280;27404;52.398;9.646;2023-02-10T12:17:33;102777.38;;;4.58;100.00
8160;BME280;27404;52.398;9.646;2023-02-10T12:20:41;102769.69;;;4.63;100.00
8160;BME280;27404;52.398;9.646;2023-02-10T12:28:57;102777.66;;;4.65;100.00
8160;BME280;27404;52.398;9.646;2023-02-10T12:34:35;102763.53;;;4.81;100.00
8160;BME280;27404;52.398;9.646;2023-02-10T12:37:16;102771.50;;;4.82;100.00
8160;BME280;27404;52.398;9.646;2023-02-10T12:40:19;102764.81;;;4.77;100.00
8160;BME280;27404;52.398;9.646;2023-02-10T12:45:43;102759.47;;;5.04;100.00
8160;BME280;27404;52.398;9.646;2023-02-10T12:52:05;102751.47;;;5.13;100.00
8160;BME280;27404;52.398;9.646;2023-02-10T12:54:03;102739.63;;;5.14;100.00
8160;BME280;27404;52.398;9.646;2023-02-10T12:56:58;102731.50;;;5.14;100.00
8160;BME280;27404;52.398;9.646;2023-02-10T12:59:38;102737.63;;;5.26;100.00
8160;BME280;27404;52.398;9.646;2023-02-10T13:03:18;102728.78;;;5.24;100.00
8160;BME280;27404;52.398;9.646;2023-02-10T13:05:24;102734.59;;;5.29;100.00
8160;BME280;27404;52.398;9.646;2023-02-10T13:07:54;102722.44;;;5.33;100.00
8160;BME280;27404;52.398;9.646;2023-02-10T13:13:04;102712.81;;;5.11;100.00
8160;BME280;27404;52.398;9.646;2023-02-10T13:15:50;102712.84;;;5.01;100.00
8160;BME280;27404;52.398;9.646;2023-02-10T13:18:23;102711.97;;;5.00;100.00
8160;BME280;27404;52.398;9.646;2023-02-10T13:23:44;102711.34;;;4.69;100.00
8160;BME280;27404;52.398;9.646;2023-02-10T13:26:38;102708.38;;;4.62;100.00
8160;BME280;27404;52.398;9.646;2023-02-10T13:34:44;102716.66;;;4.41;100.00
8160;BME280;27404;52.398;9.646;2023-02-10T13:37:35;102709.53;;;4.40;100.00
8160;BME280;27404;52.398;9.646;2023-02-10T13:40:05;102708.94;;;4.36;100.00
8160;BME280;27404;52.398;9.646;2023-02-10T13:42:38;102706.97;;;4.38;100.00
8160;BME280;27404;52.398;9.646;2023-02-10T13:53:03;102698.13;;;4.36;100.00
8160;BME280;27404;52.398;9.646;2023-02-10T13:55:42;102699.13;;;4.35;100.00
8160;BME280;27404;52.398;9.646;2023-02-10T14:00:48;102692.00;;;4.44;100.00
8160;BME280;27404;52.398;9.646;2023-02-10T14:06:06;102682.47;;;4.40;100.00
8160;BME280;27404;52.398;9.646;2023-02-10T14:08:43;102685.16;;;4.40;100.00
8160;BME280;27404;52.398;9.646;2023-02-10T14:14:03;102679.78;;;4.30;100.00
8160;BME280;27404;52.398;9.646;2023-02-10T14:16:40;102683.88;;;4.24;100.00
8160;BME280;27404;52.398;9.646;2023-02-10T14:19:20;102675.91;;;4.23;100.00
8160;BME280;27404;52.398;9.646;2023-02-10T14:21:47;102675.91;;;4.23;100.00
8160;BME280;27404;52.398;9.646;2023-02-10T14:24:21;102670.50;;;4.13;100.00
8160;BME280;27404;52.398;9.646;2023-02-10T14:26:49;102666.22;;;4.20;100.00
8160;BME280;27404;52.398;9.646;2023-02-10T14:29:18;102662.38;;;4.23;100.00
8160;BME280;27404;52.398;9.646;2023-02-10T14:31:46;102660.81;;;4.20;100.00
8160;BME280;27404;52.398;9.646;2023-02-10T14:34:26;102651.13;;;4.27;100.00
8160;BME280;27404;52.398;9.646;2023-02-10T14:36:57;102660.41;;;4.25;100.00
8160;BME280;27404;52.398;9.646;2023-02-10T14:39:27;102656.09;;;4.22;100.00
8160;BME280;27404;52.398;9.646;2023-02-10T14:41:58;102657.53;;;4.26;100.00
8160;BME280;27404;52.398;9.646;2023-02-10T14:44:34;102657.06;;;4.31;100.00
8160;BME280;27404;52.398;9.646;2023-02-10T14:47:02;102660.50;;;4.33;100.00
8160;BME280;27404;52.398;9.646;2023-02-10T14:49:28;102648.22;;;4.49;100.00
8160;BME280;27404;52.398;9.646;2023-02-10T14:51:58;102643.38;;;4.42;100.00
8160;BME280;27404;52.398;9.646;2023-02-10T14:54:25;102641.56;;;4.43;100.00